sensor_id;sensor_type;location;lat;lon;timestamp;P1;durP1;ratioP1;P2;durP2;ratioP2
13026;SDS011;6580;42.680;23.324;2023-06-04T00:01:42;3.57;;;2.97;;
13026;SDS011;6580;42.680;23.324;2023-06-04T00:04:30;2.53;;;2.33;;
13026;SDS011;6580;42.680;23.324;2023-06-04T00:07:16;2.95;;;2.75;;
13026;SDS011;6580;42.680;23.324;2023-06-04T00:10:07;2.40;;;2.30;;
13026;SDS011;6580;42.680;23.324;2023-06-04T00:12:54;2.70;;;2.50;;
13026;SDS011;6580;42.680;23.324;2023-06-04T00:15:40;3.33;;;3.03;;
13026;SDS011;6580;42.680;23.324;2023-06-04T00:18:28;2.92;;;2.70;;
13026;SDS011;6580;42.680;23.324;2023-06-04T00:21:14;2.50;;;2.30;;
13026;SDS011;6580;42.680;23.324;2023-06-04T00:24:00;3.07;;;2.77;;
13026;SDS011;6580;42.680;23.324;2023-06-04T00:26:46;2.73;;;2.53;;
13026;SDS011;6580;42.680;23.324;2023-06-04T00:29:31;2.67;;;2.53;;
13026;SDS011;6580;42.680;23.324;2023-06-04T00:32:18;3.33;;;2.40;;
13026;SDS011;6580;42.680;23.324;2023-06-04T00:35:06;3.03;;;2.72;;
13026;SDS011;6580;42.680;23.324;2023-06-04T00:37:58;2.72;;;2.45;;
13026;SDS011;6580;42.680;23.324;2023-06-04T00:40:45;3.28;;;3.00;;
13026;SDS011;6580;42.680;23.324;2023-06-04T00:43:30;2.70;;;2.50;;
13026;SDS011;6580;42.680;23.324;2023-06-04T00:46:21;2.90;;;2.70;;
13026;SDS011;6580;42.680;23.324;2023-06-04T00:49:09;2.75;;;2.55;;
13026;SDS011;6580;42.680;23.324;2023-06-04T00:51:56;3.90;;;2.93;;
13026;SDS011;6580;42.680;23.324;2023-06-04T00:54:44;3.73;;;3.10;;
13026;SDS011;6580;42.680;23.324;2023-06-04T00:57:31;2.70;;;2.50;;
13026;SDS011;6580;42.680;23.324;2023-06-04T01:00:20;2.90;;;2.67;;
13026;SDS011;6580;42.680;23.324;2023-06-04T01:03:07;3.00;;;2.70;;
13026;SDS011;6580;42.680;23.324;2023-06-04T01:06:02;3.22;;;2.92;;
13026;SDS011;6580;42.680;23.324;2023-06-04T01:09:05;3.10;;;2.90;;
13026;SDS011;6580;42.680;23.324;2023-06-04T01:11:55;2.90;;;2.70;;
13026;SDS011;6580;42.680;23.324;2023-06-04T01:14:45;3.38;;;3.08;;
13026;SDS011;6580;42.680;23.324;2023-06-04T01:17:38;2.80;;;2.60;;
13026;SDS011;6580;42.680;23.324;2023-06-04T01:20:27;2.37;;;2.23;;
13026;SDS011;6580;42.680;23.324;2023-06-04T01:23:25;2.60;;;2.40;;
13026;SDS011;6580;42.680;23.324;2023-06-04T01:26:27;2.63;;;2.42;;
13026;SDS011;6580;42.680;23.324;2023-06-04T01:29:19;2.70;;;2.50;;
13026;SDS011;6580;42.680;23.324;2023-06-04T01:32:06;3.03;;;2.80;;
13026;SDS011;6580;42.680;23.324;2023-06-04T01:34:53;2.77;;;2.57;;
13026;SDS011;6580;42.680;23.324;2023-06-04T01:37:39;2.53;;;2.33;;
13026;SDS011;6580;42.680;23.324;2023-06-04T01:40:25;3.43;;;2.33;;
13026;SDS011;6580;42.680;23.324;2023-06-04T01:43:12;3.25;;;2.90;;
13026;SDS011;6580;42.680;23.324;2023-06-04T01:46:00;3.70;;;2.45;;
13026;SDS011;6580;42.680;23.324;2023-06-04T01:48:47;2.23;;;2.07;;
13026;SDS011;6580;42.680;23.324;2023-06-04T01:51:32;2.80;;;2.60;;
13026;SDS011;6580;42.680;23.324;2023-06-04T01:54:20;2.33;;;2.17;;
13026;SDS011;6580;42.680;23.324;2023-06-04T01:57:17;2.80;;;2.60;;
13026;SDS011;6580;42.680;23.324;2023-06-04T02:00:06;3.53;;;2.63;;
13026;SDS011;6580;42.680;23.324;2023-06-04T02:03:00;2.87;;;2.67;;
13026;SDS011;6580;42.680;23.324;2023-06-04T02:05:52;2.30;;;2.10;;
13026;SDS011;6580;42.680;23.324;2023-06-04T02:08:38;2.17;;;2.07;;
13026;SDS011;6580;42.680;23.324;2023-06-04T02:11:27;2.20;;;2.07;;
13026;SDS011;6580;42.680;23.324;2023-06-04T02:14:15;2.23;;;2.13;;
13026;SDS011;6580;42.680;23.324;2023-06-04T02:17:02;2.40;;;2.20;;
13026;SDS011;6580;42.680;23.324;2023-06-04T02:19:57;2.17;;;2.07;;
13026;SDS011;6580;42.680;23.324;2023-06-04T02:22:53;2.73;;;2.53;;
13026;SDS011;6580;42.680;23.324;2023-06-04T02:25:42;2.50;;;2.30;;
13026;SDS011;6580;42.680;23.324;2023-06-04T02:28:29;2.73;;;2.53;;
13026;SDS011;6580;42.680;23.324;2023-06-04T02:31:16;2.57;;;2.37;;
13026;SDS011;6580;42.680;23.324;2023-06-04T02:34:03;2.60;;;2.40;;
13026;SDS011;6580;42.680;23.324;2023-06-04T02:36:57;2.70;;;2.50;;
13026;SDS011;6580;42.680;23.324;2023-06-04T02:39:43;2.30;;;2.10;;
13026;SDS011;6580;42.680;23.324;2023-06-04T02:42:30;2.40;;;2.20;;
13026;SDS011;6580;42.680;23.324;2023-06-04T02:45:16;2.80;;;2.60;;
13026;SDS011;6580;42.680;23.324;2023-06-04T02:48:02;2.80;;;2.60;;
13026;SDS011;6580;42.680;23.324;2023-06-04T02:50:55;2.50;;;2.30;;
13026;SDS011;6580;42.680;23.324;2023-06-04T02:53:45;2.90;;;2.70;;
13026;SDS011;6580;42.680;23.324;2023-06-04T02:56:30;3.03;;;2.47;;
13026;SDS011;6580;42.680;23.324;2023-06-04T02:59:16;2.60;;;2.40;;
13026;SDS011;6580;42.680;23.324;2023-06-04T03:02:03;3.07;;;2.83;;
13026;SDS011;6580;42.680;23.324;2023-06-04T03:04:50;2.87;;;2.60;;
13026;SDS011;6580;42.680;23.324;2023-06-04T03:07:40;2.65;;;2.45;;
13026;SDS011;6580;42.680;23.324;2023-06-04T03:10:28;2.73;;;2.53;;
13026;SDS011;6580;42.680;23.324;2023-06-04T03:13:15;3.17;;;2.97;;
13026;SDS011;6580;42.680;23.324;2023-06-04T03:16:00;3.75;;;3.15;;
13026;SDS011;6580;42.680;23.324;2023-06-04T03:18:53;2.90;;;2.70;;
13026;SDS011;6580;42.680;23.324;2023-06-04T03:21:41;3.27;;;2.53;;
13026;SDS011;6580;42.680;23.324;2023-06-04T03:24:30;3.00;;;2.73;;
13026;SDS011;6580;42.680;23.324;2023-06-04T03:27:27;2.70;;;2.50;;
13026;SDS011;6580;42.680;23.324;2023-06-04T03:30:17;3.03;;;2.50;;
13026;SDS011;6580;42.680;23.324;2023-06-04T03:33:04;2.70;;;2.50;;
13026;SDS011;6580;42.680;23.324;2023-06-04T03:35:50;2.93;;;2.73;;
13026;SDS011;6580;42.680;23.324;2023-06-04T03:38:39;3.20;;;2.80;;
13026;SDS011;6580;42.680;23.324;2023-06-04T03:41:24;2.70;;;2.50;;
13026;SDS011;6580;42.680;23.324;2023-06-04T03:44:13;3.03;;;2.73;;
13026;SDS011;6580;42.680;23.324;2023-06-04T03:46:59;2.63;;;2.43;;
13026;SDS011;6580;42.680;23.324;2023-06-04T03:49:45;3.97;;;2.77;;
13026;SDS011;6580;42.680;23.324;2023-06-04T03:52:30;2.83;;;2.60;;
13026;SDS011;6580;42.680;23.324;2023-06-04T03:55:16;2.80;;;2.60;;
13026;SDS011;6580;42.680;23.324;2023-06-04T03:58:06;2.60;;;2.40;;
13026;SDS011;6580;42.680;23.324;2023-06-04T04:00:55;2.93;;;2.73;;
13026;SDS011;6580;42.680;23.324;2023-06-04T04:03:45;2.60;;;2.40;;
13026;SDS011;6580;42.680;23.324;2023-06-04T04:06:33;3.00;;;2.67;;
13026;SDS011;6580;42.680;23.324;2023-06-04T04:09:20;2.90;;;2.70;;
13026;SDS011;6580;42.680;23.324;2023-06-04T04:12:07;3.03;;;2.80;;
13026;SDS011;6580;42.680;23.324;2023-06-04T04:14:56;2.50;;;2.30;;
13026;SDS011;6580;42.680;23.324;2023-06-04T04:17:43;2.63;;;2.43;;
13026;SDS011;6580;42.680;23.324;2023-06-04T04:20:30;3.10;;;2.80;;
13026;SDS011;6580;42.680;23.324;2023-06-04T04:23:17;3.10;;;2.80;;
13026;SDS011;6580;42.680;23.324;2023-06-04T04:26:04;3.37;;;2.80;;
13026;SDS011;6580;42.680;23.324;2023-06-04T04:28:53;3.13;;;2.93;;
13026;SDS011;6580;42.680;23.324;2023-06-04T04:31:41;3.20;;;2.70;;
13026;SDS011;6580;42.680;23.324;2023-06-04T04:34:33;2.90;;;2.70;;
13026;SDS011;6580;42.680;23.324;2023-06-04T04:37:24;4.10;;;2.80;;
13026;SDS011;6580;42.680;23.324;2023-06-04T04:40:10;3.00;;;2.80;;
13026;SDS011;6580;42.680;23.324;2023-06-04T04:42:57;3.78;;;2.90;;
13026;SDS011;6580;42.680;23.324;2023-06-04T04:45:43;3.05;;;2.75;;
13026;SDS011;6580;42.680;23.324;2023-06-04T04:48:28;4.75;;;3.28;;
13026;SDS011;6580;42.680;23.324;2023-06-04T04:51:16;3.83;;;3.53;;
13026;SDS011;6580;42.680;23.324;2023-06-04T04:54:03;3.23;;;2.90;;
13026;SDS011;6580;42.680;23.324;2023-06-04T04:56:49;4.00;;;3.70;;
13026;SDS011;6580;42.680;23.324;2023-06-04T04:59:35;3.70;;;3.40;;
13026;SDS011;6580;42.680;23.324;2023-06-04T05:02:20;4.53;;;3.67;;
13026;SDS011;6580;42.680;23.324;2023-06-04T05:05:06;3.58;;;3.03;;
13026;SDS011;6580;42.680;23.324;2023-06-04T05:07:56;3.57;;;3.23;;
13026;SDS011;6580;42.680;23.324;2023-06-04T05:10:51;4.57;;;3.63;;
13026;SDS011;6580;42.680;23.324;2023-06-04T05:13:40;3.78;;;3.47;;
13026;SDS011;6580;42.680;23.324;2023-06-04T05:16:27;3.90;;;3.60;;
13026;SDS011;6580;42.680;23.324;2023-06-04T05:19:16;3.40;;;3.10;;
13026;SDS011;6580;42.680;23.324;2023-06-04T05:22:03;3.65;;;3.35;;
13026;SDS011;6580;42.680;23.324;2023-06-04T05:24:53;4.72;;;4.00;;
13026;SDS011;6580;42.680;23.324;2023-06-04T05:27:52;4.65;;;4.25;;
13026;SDS011;6580;42.680;23.324;2023-06-04T05:30:40;3.80;;;3.50;;
13026;SDS011;6580;42.680;23.324;2023-06-04T05:33:27;4.45;;;4.10;;
13026;SDS011;6580;42.680;23.324;2023-06-04T05:36:13;4.07;;;3.75;;
13026;SDS011;6580;42.680;23.324;2023-06-04T05:39:00;4.57;;;4.07;;
13026;SDS011;6580;42.680;23.324;2023-06-04T05:41:47;4.53;;;4.10;;
13026;SDS011;6580;42.680;23.324;2023-06-04T05:44:37;3.80;;;3.40;;
13026;SDS011;6580;42.680;23.324;2023-06-04T05:47:26;4.22;;;3.83;;
13026;SDS011;6580;42.680;23.324;2023-06-04T05:50:13;3.80;;;3.50;;
13026;SDS011;6580;42.680;23.324;2023-06-04T05:52:58;3.63;;;3.33;;
13026;SDS011;6580;42.680;23.324;2023-06-04T05:55:44;4.20;;;3.80;;
13026;SDS011;6580;42.680;23.324;2023-06-04T05:58:32;4.50;;;4.10;;
13026;SDS011;6580;42.680;23.324;2023-06-04T06:01:18;3.97;;;3.60;;
13026;SDS011;6580;42.680;23.324;2023-06-04T06:04:05;3.63;;;3.33;;
13026;SDS011;6580;42.680;23.324;2023-06-04T06:06:52;4.00;;;3.70;;
13026;SDS011;6580;42.680;23.324;2023-06-04T06:09:39;5.82;;;4.18;;
13026;SDS011;6580;42.680;23.324;2023-06-04T06:12:25;4.20;;;3.80;;
13026;SDS011;6580;42.680;23.324;2023-06-04T06:15:12;4.10;;;3.77;;
13026;SDS011;6580;42.680;23.324;2023-06-04T06:18:00;4.03;;;3.72;;
13026;SDS011;6580;42.680;23.324;2023-06-04T06:20:46;4.68;;;3.92;;
13026;SDS011;6580;42.680;23.324;2023-06-04T06:23:33;4.55;;;3.60;;
13026;SDS011;6580;42.680;23.324;2023-06-04T06:26:22;3.80;;;3.50;;
13026;SDS011;6580;42.680;23.324;2023-06-04T06:29:15;3.78;;;3.47;;
13026;SDS011;6580;42.680;23.324;2023-06-04T06:32:02;4.03;;;3.70;;
13026;SDS011;6580;42.680;23.324;2023-06-04T06:34:49;4.00;;;3.70;;
13026;SDS011;6580;42.680;23.324;2023-06-04T06:37:35;4.00;;;3.70;;
13026;SDS011;6580;42.680;23.324;2023-06-04T06:40:25;4.32;;;3.95;;
13026;SDS011;6580;42.680;23.324;2023-06-04T06:43:11;4.18;;;3.78;;
13026;SDS011;6580;42.680;23.324;2023-06-04T06:45:58;4.10;;;3.22;;
13026;SDS011;6580;42.680;23.324;2023-06-04T06:48:47;4.13;;;3.75;;
13026;SDS011;6580;42.680;23.324;2023-06-04T06:51:33;4.43;;;3.60;;
13026;SDS011;6580;42.680;23.324;2023-06-04T06:54:19;4.40;;;4.00;;
13026;SDS011;6580;42.680;23.324;2023-06-04T06:57:05;4.07;;;3.67;;
13026;SDS011;6580;42.680;23.324;2023-06-04T06:59:52;3.80;;;3.40;;
13026;SDS011;6580;42.680;23.324;2023-06-04T07:02:38;3.83;;;3.47;;
13026;SDS011;6580;42.680;23.324;2023-06-04T07:05:25;4.07;;;3.67;;
13026;SDS011;6580;42.680;23.324;2023-06-04T07:08:13;3.95;;;3.65;;
13026;SDS011;6580;42.680;23.324;2023-06-04T07:11:00;3.42;;;3.15;;
13026;SDS011;6580;42.680;23.324;2023-06-04T07:13:47;3.97;;;3.58;;
13026;SDS011;6580;42.680;23.324;2023-06-04T07:16:34;4.13;;;3.72;;
13026;SDS011;6580;42.680;23.324;2023-06-04T07:19:19;4.47;;;4.07;;
13026;SDS011;6580;42.680;23.324;2023-06-04T07:22:06;4.07;;;3.58;;
13026;SDS011;6580;42.680;23.324;2023-06-04T07:24:55;4.20;;;3.80;;
13026;SDS011;6580;42.680;23.324;2023-06-04T07:27:52;4.78;;;4.25;;
13026;SDS011;6580;42.680;23.324;2023-06-04T07:30:41;4.03;;;3.72;;
13026;SDS011;6580;42.680;23.324;2023-06-04T07:33:26;4.38;;;3.97;;
13026;SDS011;6580;42.680;23.324;2023-06-04T07:36:12;4.97;;;4.43;;
13026;SDS011;6580;42.680;23.324;2023-06-04T07:38:59;4.28;;;3.88;;
13026;SDS011;6580;42.680;23.324;2023-06-04T07:41:45;4.40;;;4.00;;
13026;SDS011;6580;42.680;23.324;2023-06-04T07:44:30;4.10;;;3.72;;
13026;SDS011;6580;42.680;23.324;2023-06-04T07:47:16;4.15;;;3.85;;
13026;SDS011;6580;42.680;23.324;2023-06-04T07:50:01;5.40;;;4.53;;
13026;SDS011;6580;42.680;23.324;2023-06-04T07:52:47;4.10;;;3.80;;
13026;SDS011;6580;42.680;23.324;2023-06-04T07:55:38;4.63;;;3.95;;
13026;SDS011;6580;42.680;23.324;2023-06-04T07:58:25;4.55;;;4.15;;
13026;SDS011;6580;42.680;23.324;2023-06-04T08:01:11;5.57;;;4.10;;
13026;SDS011;6580;42.680;23.324;2023-06-04T08:03:56;5.45;;;4.43;;
13026;SDS011;6580;42.680;23.324;2023-06-04T08:06:42;4.43;;;4.03;;
13026;SDS011;6580;42.680;23.324;2023-06-04T08:09:28;4.80;;;3.85;;
13026;SDS011;6580;42.680;23.324;2023-06-04T08:12:17;4.90;;;3.95;;
13026;SDS011;6580;42.680;23.324;2023-06-04T08:15:04;4.80;;;4.35;;
13026;SDS011;6580;42.680;23.324;2023-06-04T08:17:57;5.30;;;4.40;;
13026;SDS011;6580;42.680;23.324;2023-06-04T08:20:44;5.45;;;4.90;;
13026;SDS011;6580;42.680;23.324;2023-06-04T08:23:33;5.07;;;4.57;;
13026;SDS011;6580;42.680;23.324;2023-06-04T08:26:21;6.22;;;4.63;;
13026;SDS011;6580;42.680;23.324;2023-06-04T08:29:14;5.78;;;4.70;;
13026;SDS011;6580;42.680;23.324;2023-06-04T08:32:06;6.13;;;4.82;;
13026;SDS011;6580;42.680;23.324;2023-06-04T08:34:52;5.53;;;4.75;;
13026;SDS011;6580;42.680;23.324;2023-06-04T08:37:39;6.13;;;5.43;;
13026;SDS011;6580;42.680;23.324;2023-06-04T08:40:25;5.03;;;4.53;;
13026;SDS011;6580;42.680;23.324;2023-06-04T08:43:11;5.32;;;4.40;;
13026;SDS011;6580;42.680;23.324;2023-06-04T08:45:59;9.73;;;5.03;;
13026;SDS011;6580;42.680;23.324;2023-06-04T08:48:50;6.18;;;4.72;;
13026;SDS011;6580;42.680;23.324;2023-06-04T08:51:37;4.97;;;4.47;;
13026;SDS011;6580;42.680;23.324;2023-06-04T08:54:24;6.22;;;5.25;;
13026;SDS011;6580;42.680;23.324;2023-06-04T08:57:10;6.32;;;4.75;;
13026;SDS011;6580;42.680;23.324;2023-06-04T08:59:59;6.32;;;5.72;;
13026;SDS011;6580;42.680;23.324;2023-06-04T09:02:47;5.25;;;4.75;;
13026;SDS011;6580;42.680;23.324;2023-06-04T09:05:33;6.75;;;4.68;;
13026;SDS011;6580;42.680;23.324;2023-06-04T09:08:20;6.30;;;4.90;;
13026;SDS011;6580;42.680;23.324;2023-06-04T09:11:09;6.38;;;5.18;;
13026;SDS011;6580;42.680;23.324;2023-06-04T09:13:58;5.18;;;4.68;;
13026;SDS011;6580;42.680;23.324;2023-06-04T09:16:48;4.88;;;4.47;;
13026;SDS011;6580;42.680;23.324;2023-06-04T09:19:35;6.10;;;5.50;;
13026;SDS011;6580;42.680;23.324;2023-06-04T09:22:31;6.18;;;5.13;;
13026;SDS011;6580;42.680;23.324;2023-06-04T09:25:20;6.43;;;5.35;;
13026;SDS011;6580;42.680;23.324;2023-06-04T09:28:09;5.72;;;5.13;;
13026;SDS011;6580;42.680;23.324;2023-06-04T09:30:55;7.72;;;5.82;;
13026;SDS011;6580;42.680;23.324;2023-06-04T09:33:44;7.68;;;5.40;;
13026;SDS011;6580;42.680;23.324;2023-06-04T09:36:32;7.90;;;5.95;;
13026;SDS011;6580;42.680;23.324;2023-06-04T09:39:19;6.68;;;5.97;;
13026;SDS011;6580;42.680;23.324;2023-06-04T09:42:04;7.38;;;6.57;;
13026;SDS011;6580;42.680;23.324;2023-06-04T09:44:51;10.05;;;6.68;;
13026;SDS011;6580;42.680;23.324;2023-06-04T09:47:40;10.25;;;8.23;;
13026;SDS011;6580;42.680;23.324;2023-06-04T09:50:29;8.95;;;6.63;;
13026;SDS011;6580;42.680;23.324;2023-06-04T09:53:19;6.72;;;6.03;;
13026;SDS011;6580;42.680;23.324;2023-06-04T09:56:10;7.07;;;5.50;;
13026;SDS011;6580;42.680;23.324;2023-06-04T09:58:58;17.30;;;9.80;;
13026;SDS011;6580;42.680;23.324;2023-06-04T10:01:45;6.10;;;5.50;;
13026;SDS011;6580;42.680;23.324;2023-06-04T10:04:32;6.22;;;5.63;;
13026;SDS011;6580;42.680;23.324;2023-06-04T10:07:20;5.88;;;4.88;;
13026;SDS011;6580;42.680;23.324;2023-06-04T10:10:09;7.15;;;5.30;;
13026;SDS011;6580;42.680;23.324;2023-06-04T10:13:00;5.15;;;4.65;;
13026;SDS011;6580;42.680;23.324;2023-06-04T10:15:51;5.03;;;4.53;;
13026;SDS011;6580;42.680;23.324;2023-06-04T10:18:37;5.18;;;4.68;;
13026;SDS011;6580;42.680;23.324;2023-06-04T10:21:24;7.35;;;4.35;;
13026;SDS011;6580;42.680;23.324;2023-06-04T10:24:12;5.18;;;4.68;;
13026;SDS011;6580;42.680;23.324;2023-06-04T10:27:01;5.18;;;4.30;;
13026;SDS011;6580;42.680;23.324;2023-06-04T10:29:54;8.75;;;6.97;;
13026;SDS011;6580;42.680;23.324;2023-06-04T10:32:40;5.63;;;5.03;;
13026;SDS011;6580;42.680;23.324;2023-06-04T10:35:30;5.05;;;4.40;;
13026;SDS011;6580;42.680;23.324;2023-06-04T10:38:17;5.13;;;4.32;;
13026;SDS011;6580;42.680;23.324;2023-06-04T10:41:12;5.10;;;4.60;;
13026;SDS011;6580;42.680;23.324;2023-06-04T10:44:02;5.35;;;4.85;;
13026;SDS011;6580;42.680;23.324;2023-06-04T10:46:47;5.55;;;5.05;;
13026;SDS011;6580;42.680;23.324;2023-06-04T10:49:33;5.38;;;4.88;;
13026;SDS011;6580;42.680;23.324;2023-06-04T10:52:19;5.38;;;4.88;;
13026;SDS011;6580;42.680;23.324;2023-06-04T10:55:06;4.82;;;4.40;;
13026;SDS011;6580;42.680;23.324;2023-06-04T10:57:53;5.15;;;4.60;;
13026;SDS011;6580;42.680;23.324;2023-06-04T11:00:41;5.03;;;4.53;;
13026;SDS011;6580;42.680;23.324;2023-06-04T11:03:35;5.53;;;5.00;;
13026;SDS011;6580;42.680;23.324;2023-06-04T11:06:22;5.40;;;4.90;;
13026;SDS011;6580;42.680;23.324;2023-06-04T11:09:12;5.30;;;4.80;;
13026;SDS011;6580;42.680;23.324;2023-06-04T11:12:04;5.90;;;5.32;;
13026;SDS011;6580;42.680;23.324;2023-06-04T11:14:54;5.35;;;4.90;;
13026;SDS011;6580;42.680;23.324;2023-06-04T11:17:51;5.43;;;5.00;;
13026;SDS011;6580;42.680;23.324;2023-06-04T11:20:39;5.50;;;5.00;;
13026;SDS011;6580;42.680;23.324;2023-06-04T11:23:28;5.10;;;4.57;;
13026;SDS011;6580;42.680;23.324;2023-06-04T11:26:14;5.50;;;5.03;;
13026;SDS011;6580;42.680;23.324;2023-06-04T11:29:05;5.90;;;5.13;;
13026;SDS011;6580;42.680;23.324;2023-06-04T11:31:55;6.40;;;5.05;;
13026;SDS011;6580;42.680;23.324;2023-06-04T11:34:45;5.82;;;4.68;;
13026;SDS011;6580;42.680;23.324;2023-06-04T11:37:31;5.50;;;5.00;;
13026;SDS011;6580;42.680;23.324;2023-06-04T11:40:21;6.60;;;5.95;;
13026;SDS011;6580;42.680;23.324;2023-06-04T11:43:08;5.90;;;5.30;;
13026;SDS011;6580;42.680;23.324;2023-06-04T11:45:56;5.90;;;5.40;;
13026;SDS011;6580;42.680;23.324;2023-06-04T11:48:45;5.88;;;5.38;;
13026;SDS011;6580;42.680;23.324;2023-06-04T11:51:34;6.10;;;5.60;;
13026;SDS011;6580;42.680;23.324;2023-06-04T11:54:19;6.43;;;5.53;;
13026;SDS011;6580;42.680;23.324;2023-06-04T11:57:06;6.05;;;5.32;;
13026;SDS011;6580;42.680;23.324;2023-06-04T11:59:52;6.68;;;6.07;;
13026;SDS011;6580;42.680;23.324;2023-06-04T12:02:48;6.55;;;5.95;;
13026;SDS011;6580;42.680;23.324;2023-06-04T12:05:36;6.10;;;5.40;;
13026;SDS011;6580;42.680;23.324;2023-06-04T12:08:23;6.90;;;5.90;;
13026;SDS011;6580;42.680;23.324;2023-06-04T12:11:08;6.10;;;5.55;;
13026;SDS011;6580;42.680;23.324;2023-06-04T12:13:55;5.80;;;5.30;;
13026;SDS011;6580;42.680;23.324;2023-06-04T12:16:43;6.28;;;5.68;;
13026;SDS011;6580;42.680;23.324;2023-06-04T12:19:46;6.50;;;5.90;;
13026;SDS011;6580;42.680;23.324;2023-06-04T12:22:33;5.63;;;5.13;;
13026;SDS011;6580;42.680;23.324;2023-06-04T12:25:32;6.28;;;5.68;;
13026;SDS011;6580;42.680;23.324;2023-06-04T12:28:18;6.20;;;5.70;;
13026;SDS011;6580;42.680;23.324;2023-06-04T12:31:15;6.90;;;6.20;;
13026;SDS011;6580;42.680;23.324;2023-06-04T12:34:04;6.18;;;5.68;;
13026;SDS011;6580;42.680;23.324;2023-06-04T12:36:50;6.75;;;6.05;;
13026;SDS011;6580;42.680;23.324;2023-06-04T12:39:37;6.72;;;6.13;;
13026;SDS011;6580;42.680;23.324;2023-06-04T12:42:25;6.10;;;5.60;;
13026;SDS011;6580;42.680;23.324;2023-06-04T12:45:13;6.68;;;6.07;;
13026;SDS011;6580;42.680;23.324;2023-06-04T12:47:59;6.38;;;5.72;;
13026;SDS011;6580;42.680;23.324;2023-06-04T12:50:47;6.18;;;5.68;;
13026;SDS011;6580;42.680;23.324;2023-06-04T12:53:32;6.78;;;6.18;;
13026;SDS011;6580;42.680;23.324;2023-06-04T12:56:18;6.18;;;5.68;;
13026;SDS011;6580;42.680;23.324;2023-06-04T12:59:05;6.40;;;5.80;;
13026;SDS011;6580;42.680;23.324;2023-06-04T13:01:50;5.85;;;5.35;;
13026;SDS011;6580;42.680;23.324;2023-06-04T13:04:36;5.55;;;5.07;;
13026;SDS011;6580;42.680;23.324;2023-06-04T13:07:21;6.03;;;5.25;;
13026;SDS011;6580;42.680;23.324;2023-06-04T13:10:07;5.30;;;4.78;;
13026;SDS011;6580;42.680;23.324;2023-06-04T13:12:53;5.80;;;5.30;;
13026;SDS011;6580;42.680;23.324;2023-06-04T13:15:40;5.72;;;5.22;;
13026;SDS011;6580;42.680;23.324;2023-06-04T13:18:25;5.97;;;5.38;;
13026;SDS011;6580;42.680;23.324;2023-06-04T13:21:12;5.68;;;5.18;;
13026;SDS011;6580;42.680;23.324;2023-06-04T13:23:57;5.60;;;5.10;;
13026;SDS011;6580;42.680;23.324;2023-06-04T13:26:44;5.88;;;5.13;;
13026;SDS011;6580;42.680;23.324;2023-06-04T13:29:29;5.03;;;4.63;;
13026;SDS011;6580;42.680;23.324;2023-06-04T13:32:18;5.15;;;4.60;;
13026;SDS011;6580;42.680;23.324;2023-06-04T13:35:04;5.53;;;4.95;;
13026;SDS011;6580;42.680;23.324;2023-06-04T13:37:53;5.30;;;4.85;;
13026;SDS011;6580;42.680;23.324;2023-06-04T13:40:39;5.18;;;4.68;;
13026;SDS011;6580;42.680;23.324;2023-06-04T13:43:27;5.18;;;4.78;;
13026;SDS011;6580;42.680;23.324;2023-06-04T13:46:13;5.60;;;5.10;;
13026;SDS011;6580;42.680;23.324;2023-06-04T13:49:01;5.97;;;4.60;;
13026;SDS011;6580;42.680;23.324;2023-06-04T13:51:46;5.28;;;4.80;;
13026;SDS011;6580;42.680;23.324;2023-06-04T13:54:32;5.15;;;4.70;;
13026;SDS011;6580;42.680;23.324;2023-06-04T13:57:20;5.05;;;4.57;;
13026;SDS011;6580;42.680;23.324;2023-06-04T14:00:06;5.35;;;4.85;;
13026;SDS011;6580;42.680;23.324;2023-06-04T14:02:53;5.00;;;4.60;;
13026;SDS011;6580;42.680;23.324;2023-06-04T14:05:43;5.47;;;4.97;;
13026;SDS011;6580;42.680;23.324;2023-06-04T14:08:29;5.63;;;5.13;;
13026;SDS011;6580;42.680;23.324;2023-06-04T14:11:15;5.20;;;4.78;;
13026;SDS011;6580;42.680;23.324;2023-06-04T14:14:01;5.55;;;5.05;;
13026;SDS011;6580;42.680;23.324;2023-06-04T14:16:48;5.10;;;4.70;;
13026;SDS011;6580;42.680;23.324;2023-06-04T14:19:33;5.05;;;4.65;;
13026;SDS011;6580;42.680;23.324;2023-06-04T14:22:21;5.18;;;4.68;;
13026;SDS011;6580;42.680;23.324;2023-06-04T14:25:07;5.75;;;5.18;;
13026;SDS011;6580;42.680;23.324;2023-06-04T14:27:53;5.75;;;5.25;;
13026;SDS011;6580;42.680;23.324;2023-06-04T14:30:39;6.55;;;5.22;;
13026;SDS011;6580;42.680;23.324;2023-06-04T14:33:24;4.90;;;4.50;;
13026;SDS011;6580;42.680;23.324;2023-06-04T14:36:10;6.03;;;5.43;;
13026;SDS011;6580;42.680;23.324;2023-06-04T14:38:57;5.78;;;5.28;;
13026;SDS011;6580;42.680;23.324;2023-06-04T14:41:43;6.00;;;5.40;;
13026;SDS011;6580;42.680;23.324;2023-06-04T14:44:29;6.65;;;5.97;;
13026;SDS011;6580;42.680;23.324;2023-06-04T14:47:14;5.80;;;5.30;;
13026;SDS011;6580;42.680;23.324;2023-06-04T14:50:00;6.53;;;5.70;;
13026;SDS011;6580;42.680;23.324;2023-06-04T14:52:46;6.28;;;5.57;;
13026;SDS011;6580;42.680;23.324;2023-06-04T14:55:33;6.10;;;5.45;;
13026;SDS011;6580;42.680;23.324;2023-06-04T14:58:19;5.88;;;5.28;;
13026;SDS011;6580;42.680;23.324;2023-06-04T15:01:04;5.80;;;5.32;;
13026;SDS011;6580;42.680;23.324;2023-06-04T15:03:50;6.45;;;5.82;;
13026;SDS011;6580;42.680;23.324;2023-06-04T15:06:37;6.38;;;5.78;;
13026;SDS011;6580;42.680;23.324;2023-06-04T15:09:23;5.30;;;4.80;;
13026;SDS011;6580;42.680;23.324;2023-06-04T15:12:10;5.15;;;4.75;;
13026;SDS011;6580;42.680;23.324;2023-06-04T15:14:57;6.57;;;5.97;;
13026;SDS011;6580;42.680;23.324;2023-06-04T15:17:42;6.38;;;5.78;;
13026;SDS011;6580;42.680;23.324;2023-06-04T15:20:28;6.28;;;5.70;;
13026;SDS011;6580;42.680;23.324;2023-06-04T15:23:13;5.75;;;5.25;;
13026;SDS011;6580;42.680;23.324;2023-06-04T15:25:59;5.75;;;5.25;;
13026;SDS011;6580;42.680;23.324;2023-06-04T15:28:46;6.10;;;5.60;;
13026;SDS011;6580;42.680;23.324;2023-06-04T15:31:32;5.95;;;5.45;;
13026;SDS011;6580;42.680;23.324;2023-06-04T15:34:17;6.07;;;5.57;;
13026;SDS011;6580;42.680;23.324;2023-06-04T15:37:03;6.32;;;5.82;;
13026;SDS011;6580;42.680;23.324;2023-06-04T15:39:48;5.90;;;5.40;;
13026;SDS011;6580;42.680;23.324;2023-06-04T15:42:34;5.72;;;5.22;;
13026;SDS011;6580;42.680;23.324;2023-06-04T15:45:21;6.53;;;5.80;;
13026;SDS011;6580;42.680;23.324;2023-06-04T15:48:08;6.00;;;5.40;;
13026;SDS011;6580;42.680;23.324;2023-06-04T15:50:56;6.05;;;5.07;;
13026;SDS011;6580;42.680;23.324;2023-06-04T15:53:41;6.15;;;5.55;;
13026;SDS011;6580;42.680;23.324;2023-06-04T15:56:28;6.43;;;5.65;;
13026;SDS011;6580;42.680;23.324;2023-06-04T15:59:14;6.50;;;6.00;;
13026;SDS011;6580;42.680;23.324;2023-06-04T16:02:01;5.90;;;5.18;;
13026;SDS011;6580;42.680;23.324;2023-06-04T16:04:46;6.32;;;5.72;;
13026;SDS011;6580;42.680;23.324;2023-06-04T16:07:32;7.95;;;6.88;;
13026;SDS011;6580;42.680;23.324;2023-06-04T16:10:20;8.20;;;7.30;;
13026;SDS011;6580;42.680;23.324;2023-06-04T16:13:06;7.97;;;7.15;;
13026;SDS011;6580;42.680;23.324;2023-06-04T16:15:53;7.05;;;6.35;;
13026;SDS011;6580;42.680;23.324;2023-06-04T16:18:41;7.28;;;6.38;;
13026;SDS011;6580;42.680;23.324;2023-06-04T16:21:27;7.15;;;6.47;;
13026;SDS011;6580;42.680;23.324;2023-06-04T16:24:14;8.48;;;6.82;;
13026;SDS011;6580;42.680;23.324;2023-06-04T16:27:00;8.27;;;7.47;;
13026;SDS011;6580;42.680;23.324;2023-06-04T16:29:46;10.13;;;8.05;;
13026;SDS011;6580;42.680;23.324;2023-06-04T16:32:31;9.18;;;7.57;;
13026;SDS011;6580;42.680;23.324;2023-06-04T16:35:20;8.85;;;7.60;;
13026;SDS011;6580;42.680;23.324;2023-06-04T16:38:08;11.10;;;8.35;;
13026;SDS011;6580;42.680;23.324;2023-06-04T16:40:53;12.32;;;8.98;;
13026;SDS011;6580;42.680;23.324;2023-06-04T16:43:40;9.77;;;8.77;;
13026;SDS011;6580;42.680;23.324;2023-06-04T16:46:25;9.27;;;8.15;;
13026;SDS011;6580;42.680;23.324;2023-06-04T16:49:11;8.57;;;7.63;;
13026;SDS011;6580;42.680;23.324;2023-06-04T16:51:58;8.85;;;7.22;;